createdAt,value
2018-05-09T00:01:12.914Z,4.20
2018-05-09T00:03:39.106Z,4.23
2018-05-09T00:06:05.283Z,4.30
2018-05-09T00:08:31.509Z,4.40
2018-05-09T00:10:57.666Z,4.93
2018-05-09T00:13:23.862Z,4.60
2018-05-09T00:15:50.034Z,4.60
2018-05-09T00:18:16.204Z,4.57
2018-05-09T00:20:42.363Z,4.50
2018-05-09T00:23:08.514Z,4.77
2018-05-09T00:25:34.746Z,4.33
2018-05-09T00:28:01.696Z,4.60
2018-05-09T00:30:27.852Z,5.00
2018-05-09T00:32:53.992Z,4.53
2018-05-09T00:35:20.197Z,4.80
2018-05-09T00:37:46.340Z,5.27
2018-05-09T00:40:12.508Z,5.30
2018-05-09T00:42:38.658Z,5.50
2018-05-09T00:45:04.836Z,5.10
2018-05-09T00:47:31.038Z,5.00
2018-05-09T00:49:57.203Z,5.40
2018-05-09T00:52:23.366Z,5.53
2018-05-09T00:54:49.515Z,6.00
2018-05-09T00:57:15.654Z,5.53
2018-05-09T00:59:41.802Z,5.67
2018-05-09T01:02:07.944Z,5.40
2018-05-09T01:04:34.096Z,5.03
2018-05-09T01:07:00.266Z,5.87
2018-05-09T01:09:26.455Z,5.70
2018-05-09T01:11:53.429Z,5.63
2018-05-09T01:14:20.335Z,5.10
2018-05-09T01:16:46.522Z,4.90
2018-05-09T01:19:12.683Z,5.30
2018-05-09T01:21:38.872Z,5.50
2018-05-09T01:24:05.824Z,6.20
2018-05-09T01:26:31.994Z,5.97
2018-05-09T01:28:58.183Z,5.47
2018-05-09T01:31:25.111Z,5.60
2018-05-09T01:33:51.307Z,5.50
2018-05-09T01:36:17.463Z,5.70
2018-05-09T01:38:43.615Z,5.80
2018-05-09T01:41:09.800Z,6.23
2018-05-09T01:43:35.950Z,6.90
2018-05-09T01:46:02.119Z,7.30
2018-05-09T01:48:28.270Z,7.63
2018-05-09T01:50:54.413Z,7.00
2018-05-09T01:53:20.594Z,6.20
2018-05-09T01:55:46.787Z,7.67
2018-05-09T01:58:12.955Z,8.30
2018-05-09T02:00:39.139Z,7.07
2018-05-09T02:03:06.049Z,7.13
2018-05-09T02:05:33.701Z,6.63
2018-05-09T02:07:59.860Z,6.30
2018-05-09T02:10:27.484Z,5.77
2018-05-09T02:12:53.646Z,6.07
2018-05-09T02:15:21.325Z,6.00
2018-05-09T02:17:47.498Z,5.93
2018-05-09T02:20:13.664Z,5.87
2018-05-09T02:22:39.839Z,6.07
2018-05-09T02:25:06.742Z,6.23
2018-05-09T02:27:32.903Z,5.50
2018-05-09T02:29:59.061Z,6.00
2018-05-09T02:32:25.248Z,6.03
2018-05-09T02:34:51.389Z,6.00
2018-05-09T02:37:17.556Z,5.40
2018-05-09T02:39:43.720Z,5.60
2018-05-09T02:42:09.900Z,6.43
2018-05-09T02:44:36.068Z,5.80
2018-05-09T02:47:02.235Z,6.10
2018-05-09T02:49:28.407Z,6.20
2018-05-09T02:51:54.554Z,5.90
2018-05-09T02:54:20.747Z,6.10
2018-05-09T02:56:46.921Z,6.00
2018-05-09T02:59:13.096Z,5.70
2018-05-09T03:01:39.254Z,6.23
2018-05-09T03:04:05.413Z,6.10
2018-05-09T03:06:31.608Z,6.00
2018-05-09T03:08:59.255Z,5.70
2018-05-09T03:11:25.404Z,5.90
2018-05-09T03:13:51.590Z,5.47
2018-05-09T03:16:17.740Z,6.07
2018-05-09T03:18:43.952Z,6.17
2018-05-09T03:21:10.066Z,6.40
2018-05-09T03:23:36.993Z,6.00
2018-05-09T03:26:03.159Z,6.67
2018-05-09T03:28:29.315Z,6.10
2018-05-09T03:30:55.465Z,6.47
2018-05-09T03:33:21.629Z,6.07
2018-05-09T03:35:47.757Z,6.57
2018-05-09T03:38:13.907Z,6.10
2018-05-09T03:40:40.832Z,5.97
2018-05-09T03:43:06.970Z,5.60
2018-05-09T03:45:33.123Z,5.53
2018-05-09T03:47:59.336Z,5.23
2018-05-09T03:50:25.508Z,5.37
2018-05-09T03:52:51.641Z,6.00
2018-05-09T03:55:18.534Z,5.27
2018-05-09T03:57:44.723Z,5.23
2018-05-09T04:00:10.870Z,6.17
2018-05-09T04:02:55.581Z,5.13
2018-05-09T04:05:40.116Z,6.03
2018-05-09T04:08:25.719Z,5.43
2018-05-09T04:10:51.831Z,5.90
2018-05-09T04:13:18.062Z,5.53
2018-05-09T04:15:44.147Z,5.97
2018-05-09T04:18:11.168Z,5.70
2018-05-09T04:20:37.406Z,5.20
2018-05-09T04:23:03.467Z,5.70
2018-05-09T04:25:29.611Z,5.20
2018-05-09T04:27:55.767Z,5.83
2018-05-09T04:30:21.912Z,5.83
2018-05-09T04:32:48.812Z,6.20
2018-05-09T04:35:14.973Z,6.13
2018-05-09T04:37:41.131Z,6.30
2018-05-09T04:40:07.306Z,6.20
2018-05-09T04:42:33.462Z,6.07
2018-05-09T04:44:59.610Z,7.17
2018-05-09T04:47:25.808Z,6.93
2018-05-09T04:49:52.013Z,6.77
2018-05-09T04:52:18.169Z,6.63
2018-05-09T04:54:44.309Z,6.90
2018-05-09T04:57:10.454Z,6.67
2018-05-09T04:59:36.621Z,6.87
2018-05-09T05:02:02.775Z,6.30
2018-05-09T05:04:28.915Z,6.80
2018-05-09T05:06:55.137Z,7.10
2018-05-09T05:09:21.260Z,7.23
2018-05-09T05:11:47.446Z,7.70
2018-05-09T05:14:13.578Z,7.03
2018-05-09T05:16:39.714Z,8.30
2018-05-09T05:19:05.877Z,7.90
2018-05-09T05:21:32.013Z,7.70
2018-05-09T05:23:58.947Z,7.43
2018-05-09T05:26:25.104Z,7.73
2018-05-09T05:28:51.963Z,8.30
2018-05-09T05:31:18.102Z,7.83
2018-05-09T05:33:44.280Z,8.17
2018-05-09T05:36:10.400Z,8.67
2018-05-09T05:38:36.552Z,8.13
2018-05-09T05:41:02.708Z,9.00
2018-05-09T05:43:28.858Z,9.40
2018-05-09T05:45:55.034Z,8.33
2018-05-09T05:48:21.210Z,8.83
2018-05-09T05:50:47.365Z,9.30
2018-05-09T05:53:13.519Z,9.93
2018-05-09T05:55:39.689Z,9.00
2018-05-09T05:58:05.883Z,9.07
2018-05-09T06:00:32.050Z,9.00
2018-05-09T06:02:58.190Z,9.33
2018-05-09T06:05:24.357Z,10.07
2018-05-09T06:07:50.490Z,10.20
2018-05-09T06:10:16.653Z,9.47
2018-05-09T06:12:42.877Z,9.93
2018-05-09T06:15:09.033Z,10.53
2018-05-09T06:17:35.198Z,9.67
2018-05-09T06:20:01.333Z,11.03
2018-05-09T06:22:28.223Z,10.47
2018-05-09T06:24:54.362Z,10.43
2018-05-09T06:27:20.486Z,9.80
2018-05-09T06:29:46.615Z,10.27
2018-05-09T06:32:12.768Z,9.60
2018-05-09T06:34:38.914Z,9.97
2018-05-09T06:37:05.073Z,9.80
2018-05-09T06:39:31.239Z,10.13
2018-05-09T06:41:57.429Z,12.23
2018-05-09T06:44:23.558Z,10.50
2018-05-09T06:46:49.697Z,12.13
2018-05-09T06:49:15.843Z,10.70
2018-05-09T06:51:41.984Z,10.67
2018-05-09T06:54:08.131Z,10.13
2018-05-09T06:56:34.296Z,9.60
2018-05-09T06:59:00.470Z,9.93
2018-05-09T07:01:26.604Z,9.50
2018-05-09T07:03:52.738Z,9.80
2018-05-09T07:06:18.924Z,9.70
2018-05-09T07:08:45.034Z,9.33
2018-05-09T07:11:11.182Z,9.70
2018-05-09T07:13:37.328Z,9.07
2018-05-09T07:16:03.465Z,9.50
2018-05-09T07:18:30.362Z,9.57
2018-05-09T07:20:56.535Z,9.07
2018-05-09T07:23:22.684Z,9.30
2018-05-09T07:25:48.827Z,10.27
2018-05-09T07:28:14.967Z,9.80
2018-05-09T07:30:41.108Z,9.20
2018-05-09T07:33:07.252Z,9.80
2018-05-09T07:35:33.443Z,10.27
2018-05-09T07:37:59.561Z,9.23
2018-05-09T07:40:25.755Z,8.97
2018-05-09T07:42:51.870Z,9.40
2018-05-09T07:45:17.988Z,9.23
2018-05-09T07:47:44.916Z,8.93
2018-05-09T07:50:11.008Z,8.73
2018-05-09T07:52:37.171Z,9.67
2018-05-09T07:55:03.327Z,9.07
2018-05-09T07:57:29.475Z,10.27
2018-05-09T07:59:56.396Z,9.27
2018-05-09T08:02:23.279Z,10.03
2018-05-09T08:04:49.419Z,10.40
2018-05-09T08:07:15.580Z,10.87
2018-05-09T08:09:41.741Z,10.77
2018-05-09T08:12:07.873Z,10.77
2018-05-09T08:14:34.007Z,9.67
2018-05-09T08:17:00.163Z,10.53
2018-05-09T08:19:26.298Z,10.03
2018-05-09T08:21:52.459Z,9.30
2018-05-09T08:24:18.600Z,9.60
2018-05-09T08:26:44.842Z,8.77
2018-05-09T08:29:11.027Z,8.50
2018-05-09T08:31:37.179Z,8.47
2018-05-09T08:34:03.355Z,8.40
2018-05-09T08:36:29.496Z,7.80
2018-05-09T08:38:56.396Z,8.70
2018-05-09T08:41:22.559Z,8.80
2018-05-09T08:43:48.717Z,8.37
2018-05-09T08:46:14.854Z,8.80
2018-05-09T08:48:41.051Z,9.10
2018-05-09T08:51:07.238Z,8.63
2018-05-09T08:53:33.380Z,9.30
2018-05-09T08:55:59.535Z,8.30
2018-05-09T08:58:25.701Z,8.03
2018-05-09T09:00:51.846Z,8.30
2018-05-09T09:03:18.008Z,7.93
2018-05-09T09:05:44.146Z,7.97
2018-05-09T09:08:10.273Z,8.73
2018-05-09T09:10:36.443Z,8.30
2018-05-09T09:13:02.586Z,7.63
2018-05-09T09:15:28.787Z,7.20
2018-05-09T09:17:54.874Z,6.65
2018-05-09T09:20:21.013Z,6.40
2018-05-09T09:22:47.138Z,6.95
2018-05-09T09:25:13.275Z,6.47
2018-05-09T09:27:39.402Z,6.90
2018-05-09T09:30:05.576Z,5.87
2018-05-09T09:32:31.742Z,5.65
2018-05-09T09:34:57.877Z,6.00
2018-05-09T09:37:24.767Z,6.97
2018-05-09T09:39:50.930Z,5.70
2018-05-09T09:42:17.098Z,6.30
2018-05-09T09:44:43.227Z,5.68
2018-05-09T09:47:09.372Z,5.62
2018-05-09T09:49:35.512Z,5.05
2018-05-09T09:52:01.709Z,5.53
2018-05-09T09:54:28.602Z,5.30
2018-05-09T09:56:54.749Z,5.50
2018-05-09T09:59:20.904Z,5.35
2018-05-09T10:01:47.040Z,6.35
2018-05-09T10:04:13.175Z,5.47
2018-05-09T10:06:39.322Z,5.07
2018-05-09T10:09:05.467Z,5.55
2018-05-09T10:11:31.619Z,5.68
2018-05-09T10:13:57.762Z,5.72
2018-05-09T10:16:23.954Z,5.60
2018-05-09T10:18:50.077Z,6.10
2018-05-09T10:21:16.273Z,5.82
2018-05-09T10:23:42.413Z,6.22
2018-05-09T10:26:08.554Z,6.37
2018-05-09T10:28:34.722Z,6.43
2018-05-09T10:31:01.637Z,6.30
2018-05-09T10:33:27.803Z,5.53
2018-05-09T10:35:54.714Z,5.80
2018-05-09T10:38:20.943Z,5.53
2018-05-09T10:40:47.123Z,4.65
2018-05-09T10:43:14.077Z,5.43
2018-05-09T10:45:40.271Z,5.00
2018-05-09T10:48:06.474Z,5.95
2018-05-09T10:50:32.686Z,5.15
2018-05-09T10:52:58.909Z,4.20
2018-05-09T10:55:25.122Z,3.10
2018-05-09T10:57:51.258Z,2.65
2018-05-09T11:00:17.393Z,5.62
2018-05-09T11:02:43.541Z,5.15
2018-05-09T11:05:10.459Z,2.80
2018-05-09T11:07:36.606Z,3.00
2018-05-09T11:10:02.758Z,3.30
2018-05-09T11:12:28.878Z,2.87
2018-05-09T11:14:55.008Z,2.62
2018-05-09T11:17:21.896Z,2.80
2018-05-09T11:19:48.043Z,2.70
2018-05-09T11:22:14.192Z,6.20
2018-05-09T11:24:40.353Z,4.28
2018-05-09T11:27:06.486Z,3.20
2018-05-09T11:29:32.630Z,2.80
2018-05-09T11:31:58.790Z,2.97
2018-05-09T11:34:25.795Z,2.90
2018-05-09T11:36:51.925Z,2.78
2018-05-09T11:39:18.160Z,2.50
2018-05-09T11:41:44.361Z,3.08
2018-05-09T11:44:10.540Z,3.08
2018-05-09T11:46:36.716Z,2.70
2018-05-09T11:49:02.934Z,3.00
2018-05-09T11:51:29.150Z,2.78
2018-05-09T11:53:55.401Z,3.00
2018-05-09T11:56:21.550Z,2.90
2018-05-09T11:58:47.687Z,3.00
2018-05-09T12:01:13.835Z,3.83
2018-05-09T12:03:39.999Z,2.80
2018-05-09T12:06:06.967Z,3.20
2018-05-09T12:08:33.229Z,3.03
2018-05-09T12:10:59.383Z,2.87
2018-05-09T12:13:25.547Z,2.90
2018-05-09T12:15:51.722Z,2.90
2018-05-09T12:18:17.876Z,2.87
2018-05-09T12:20:44.045Z,2.87
2018-05-09T12:23:11.015Z,3.37
2018-05-09T12:25:37.156Z,2.87
2018-05-09T12:28:03.304Z,2.90
2018-05-09T12:30:29.467Z,2.97
2018-05-09T12:32:55.612Z,2.97
2018-05-09T12:35:22.496Z,2.78
2018-05-09T12:37:48.656Z,3.45
2018-05-09T12:40:14.801Z,3.45
2018-05-09T12:42:40.959Z,3.12
2018-05-09T12:45:07.135Z,2.58
2018-05-09T12:47:33.283Z,3.10
2018-05-09T12:49:59.439Z,3.20
2018-05-09T12:52:26.366Z,3.28
2018-05-09T12:54:52.537Z,3.42
2018-05-09T12:57:18.689Z,3.22
2018-05-09T12:59:44.822Z,3.25
2018-05-09T13:02:11.002Z,3.30
2018-05-09T13:04:37.175Z,3.22
2018-05-09T13:07:04.067Z,3.15
2018-05-09T13:09:30.299Z,3.28
2018-05-09T13:11:56.491Z,3.42
2018-05-09T13:14:23.385Z,3.30
2018-05-09T13:16:49.532Z,3.30
2018-05-09T13:19:15.679Z,2.95
2018-05-09T13:21:41.855Z,3.60
2018-05-09T13:24:08.005Z,3.28
2018-05-09T13:26:34.180Z,3.60
2018-05-09T13:29:00.332Z,3.15
2018-05-09T13:31:27.214Z,3.75
2018-05-09T13:33:53.379Z,3.97
2018-05-09T13:36:19.523Z,3.62
2018-05-09T13:38:45.702Z,3.72
2018-05-09T13:41:11.830Z,3.60
2018-05-09T13:43:37.967Z,3.60
2018-05-09T13:46:04.124Z,3.42
2018-05-09T13:48:30.282Z,3.40
2018-05-09T13:50:56.520Z,3.47
2018-05-09T13:53:22.679Z,3.42
2018-05-09T13:55:48.810Z,3.55
2018-05-09T13:58:14.954Z,3.40
2018-05-09T14:00:41.151Z,3.92
2018-05-09T14:03:07.290Z,3.53
2018-05-09T14:05:33.444Z,3.60
2018-05-09T14:07:59.604Z,11.20
2018-05-09T14:10:25.764Z,26.55
2018-05-09T14:12:51.911Z,27.55
2018-05-09T14:15:18.058Z,26.52
2018-05-09T14:17:44.944Z,27.23
2018-05-09T14:20:11.101Z,24.73
2018-05-09T14:22:37.247Z,26.35
2018-05-09T14:25:03.396Z,25.85
2018-05-09T14:27:29.547Z,23.55
2018-05-09T14:29:55.708Z,24.12
2018-05-09T14:32:21.977Z,23.67
2018-05-09T14:34:48.775Z,23.05
2018-05-09T14:37:15.673Z,25.88
2018-05-09T14:39:41.838Z,25.48
2018-05-09T14:42:08.724Z,25.37
2018-05-09T14:44:34.880Z,24.80
2018-05-09T14:47:01.047Z,24.40
2018-05-09T14:49:27.207Z,24.08
2018-05-09T14:51:53.421Z,24.85
2018-05-09T14:54:19.572Z,24.40
2018-05-09T14:56:45.757Z,25.00
2018-05-09T14:59:11.910Z,22.90
2018-05-09T15:01:38.059Z,25.25
2018-05-09T15:04:04.211Z,25.42
2018-05-09T15:06:31.128Z,25.27
2018-05-09T15:08:58.010Z,26.50
2018-05-09T15:11:24.172Z,25.80
2018-05-09T15:13:50.353Z,26.73
2018-05-09T15:16:16.550Z,24.98
2018-05-09T15:18:43.440Z,25.95
2018-05-09T15:21:09.594Z,27.10
2018-05-09T15:23:35.731Z,22.95
2018-05-09T15:26:01.879Z,25.52
2018-05-09T15:28:28.030Z,24.60
2018-05-09T15:30:54.170Z,25.33
2018-05-09T15:33:20.313Z,24.52
2018-05-09T15:35:46.470Z,24.80
2018-05-09T15:38:12.579Z,22.35
2018-05-09T15:40:38.708Z,23.30
2018-05-09T15:43:04.960Z,21.98
2018-05-09T15:45:31.905Z,22.50
2018-05-09T15:47:58.305Z,22.85
2018-05-09T15:50:24.461Z,23.58
2018-05-09T15:52:50.646Z,23.17
2018-05-09T15:55:16.903Z,24.40
2018-05-09T15:57:43.088Z,23.80
2018-05-09T16:00:09.231Z,26.30
2018-05-09T16:02:35.352Z,26.40
2018-05-09T16:05:02.266Z,25.08
2018-05-09T16:07:29.167Z,23.75
2018-05-09T16:09:56.203Z,23.05
2018-05-09T16:12:22.362Z,23.90
2018-05-09T16:14:48.516Z,23.33
2018-05-09T16:17:14.703Z,24.07
2018-05-09T16:19:41.602Z,22.42
2018-05-09T16:22:07.759Z,21.62
2018-05-09T16:24:33.918Z,19.55
2018-05-09T16:27:00.071Z,20.65
2018-05-09T16:29:26.221Z,19.83
2018-05-09T16:31:52.399Z,19.10
2018-05-09T16:34:18.535Z,20.20
2018-05-09T16:36:44.698Z,18.42
2018-05-09T16:39:10.885Z,17.60
2018-05-09T16:41:37.029Z,16.85
2018-05-09T16:44:03.247Z,16.77
2018-05-09T16:46:29.439Z,17.83
2018-05-09T16:48:55.649Z,16.52
2018-05-09T16:51:21.824Z,15.57
2018-05-09T16:53:48.774Z,15.98
2018-05-09T16:56:14.946Z,15.35
2018-05-09T16:58:41.152Z,14.60
2018-05-09T17:01:07.318Z,14.23
2018-05-09T17:03:33.512Z,13.33
2018-05-09T17:05:59.674Z,13.20
2018-05-09T17:08:25.951Z,12.33
2018-05-09T17:10:52.095Z,11.60
2018-05-09T17:13:18.216Z,11.33
2018-05-09T17:15:44.362Z,10.73
2018-05-09T17:18:10.471Z,11.40
2018-05-09T17:20:36.640Z,11.70
2018-05-09T17:23:03.548Z,12.03
2018-05-09T17:25:29.727Z,12.87
2018-05-09T17:27:55.911Z,13.33
2018-05-09T17:30:22.144Z,14.57
2018-05-09T17:32:48.227Z,15.23
2018-05-09T17:35:14.363Z,15.40
2018-05-09T17:37:40.512Z,15.43
2018-05-09T17:40:06.663Z,16.27
2018-05-09T17:42:32.814Z,15.93
2018-05-09T17:44:58.960Z,15.43
2018-05-09T17:47:25.951Z,14.73
2018-05-09T17:49:52.070Z,15.17
2018-05-09T17:52:18.951Z,15.60
2018-05-09T17:54:45.943Z,14.23
2018-05-09T17:57:12.111Z,14.67
2018-05-09T17:59:38.264Z,17.80
2018-05-09T18:02:04.418Z,15.67
2018-05-09T18:04:30.543Z,14.97
2018-05-09T18:06:56.723Z,17.00
2018-05-09T18:09:22.884Z,18.17
2018-05-09T18:11:49.011Z,19.10
2018-05-09T18:14:15.203Z,18.83
2018-05-09T18:16:41.391Z,18.43
2018-05-09T18:19:07.538Z,18.60
2018-05-09T18:21:33.679Z,19.03
2018-05-09T18:23:59.774Z,20.40
2018-05-09T18:26:25.923Z,19.73
2018-05-09T18:28:52.068Z,19.60
2018-05-09T18:31:18.216Z,17.97
2018-05-09T18:33:45.851Z,18.27
2018-05-09T18:36:11.978Z,17.30
2018-05-09T18:38:38.155Z,17.97
2018-05-09T18:41:04.313Z,19.47
2018-05-09T18:43:30.436Z,18.87
2018-05-09T18:45:57.321Z,18.30
2018-05-09T18:48:23.459Z,20.03
2018-05-09T18:50:49.655Z,19.57
2018-05-09T18:53:16.567Z,20.13
2018-05-09T18:55:42.706Z,20.33
2018-05-09T18:58:08.866Z,20.17
2018-05-09T19:00:35.765Z,19.17
2018-05-09T19:03:01.914Z,20.57
2018-05-09T19:05:28.071Z,21.80
2018-05-09T19:07:54.222Z,21.13
2018-05-09T19:10:21.150Z,21.63
2018-05-09T19:12:48.053Z,22.77
2018-05-09T19:15:14.182Z,21.87
2018-05-09T19:17:40.693Z,21.67
2018-05-09T19:20:06.873Z,23.87
2018-05-09T19:22:33.044Z,23.50
2018-05-09T19:24:59.934Z,24.53
2018-05-09T19:27:26.112Z,25.07
2018-05-09T19:29:52.275Z,24.40
2018-05-09T19:32:18.425Z,24.33
2018-05-09T19:34:44.544Z,24.00
2018-05-09T19:37:10.727Z,24.70
2018-05-09T19:39:36.921Z,24.63
2018-05-09T19:42:03.821Z,24.80
2018-05-09T19:44:29.919Z,26.90
2018-05-09T19:46:56.030Z,28.50
2018-05-09T19:49:22.902Z,28.50
2018-05-09T19:51:49.013Z,27.70
2018-05-09T19:54:15.129Z,28.67
2018-05-09T19:56:41.253Z,28.67
2018-05-09T19:59:07.358Z,30.10
2018-05-09T20:01:33.459Z,29.03
2018-05-09T20:03:59.591Z,31.47
2018-05-09T20:06:25.723Z,29.43
2018-05-09T20:08:51.855Z,31.07
2018-05-09T20:11:18.058Z,29.23
2018-05-09T20:13:44.220Z,31.13
2018-05-09T20:16:10.387Z,29.73
2018-05-09T20:18:36.524Z,29.37
2018-05-09T20:21:02.660Z,29.53
2018-05-09T20:23:29.639Z,29.70
2018-05-09T20:25:55.733Z,29.10
2018-05-09T20:28:21.858Z,29.70
2018-05-09T20:30:54.008Z,29.23
2018-05-09T20:33:20.164Z,28.90
2018-05-09T20:35:46.299Z,29.33
2018-05-09T20:38:12.433Z,29.10
2018-05-09T20:40:38.546Z,29.00
2018-05-09T20:43:04.677Z,28.40
2018-05-09T20:45:30.848Z,28.83
2018-05-09T20:47:56.982Z,28.70
2018-05-09T20:50:23.102Z,30.90
2018-05-09T20:52:49.220Z,28.47
2018-05-09T20:55:26.510Z,29.40
2018-05-09T20:57:52.621Z,30.83
2018-05-09T21:00:18.806Z,31.97
2018-05-09T21:02:44.943Z,33.00
2018-05-09T21:05:11.092Z,31.83
2018-05-09T21:07:54.642Z,33.10
2018-05-09T21:10:20.771Z,32.57
2018-05-09T21:12:47.002Z,34.67
2018-05-09T21:15:13.814Z,35.23
2018-05-09T21:17:39.945Z,34.07
2018-05-09T21:20:06.914Z,34.43
2018-05-09T21:22:32.984Z,34.33
2018-05-09T21:24:59.107Z,34.30
2018-05-09T21:27:25.305Z,34.27
2018-05-09T21:29:51.442Z,33.57
2018-05-09T21:32:17.577Z,34.77
2018-05-09T21:34:43.702Z,33.63
2018-05-09T21:37:09.831Z,32.43
2018-05-09T21:39:35.955Z,33.30
2018-05-09T21:42:02.085Z,31.80
2018-05-09T21:44:28.206Z,31.83
2018-05-09T21:46:54.347Z,31.20
2018-05-09T21:49:20.459Z,30.57
2018-05-09T21:51:46.598Z,29.70
2018-05-09T21:54:13.468Z,28.73
2018-05-09T21:56:39.595Z,26.70
2018-05-09T21:59:05.782Z,26.87
2018-05-09T22:01:31.908Z,26.30
2018-05-09T22:03:58.046Z,26.33
2018-05-09T22:06:24.936Z,24.87
2018-05-09T22:08:51.082Z,23.77
2018-05-09T22:11:17.219Z,24.23
2018-05-09T22:13:43.332Z,25.50
2018-05-09T22:16:09.505Z,23.90
2018-05-09T22:18:35.656Z,23.97
2018-05-09T22:21:01.795Z,24.57
2018-05-09T22:23:28.691Z,23.77
2018-05-09T22:25:54.816Z,23.63
2018-05-09T22:28:20.939Z,24.03
2018-05-09T22:30:47.811Z,24.23
2018-05-09T22:33:13.926Z,24.03
2018-05-09T22:35:40.095Z,23.63
2018-05-09T22:38:06.267Z,24.10
2018-05-09T22:40:33.145Z,23.73
2018-05-09T22:42:59.270Z,22.83
2018-05-09T22:48:18.171Z,21.40
2018-05-09T22:50:44.304Z,22.70
2018-05-09T22:53:10.437Z,19.80
2018-05-09T22:55:36.623Z,20.60
2018-05-09T22:58:02.734Z,19.67
2018-05-09T23:00:28.889Z,20.40
2018-05-09T23:02:54.975Z,20.13
2018-05-09T23:05:21.144Z,20.80
2018-05-09T23:07:47.308Z,19.10
2018-05-09T23:10:13.495Z,18.60
2018-05-09T23:12:39.642Z,19.10
2018-05-09T23:15:05.852Z,19.43
2018-05-09T23:17:32.813Z,19.30
2018-05-09T23:19:59.667Z,18.43
2018-05-09T23:22:26.569Z,19.30
2018-05-09T23:24:52.794Z,19.77
2018-05-09T23:27:19.655Z,21.43
2018-05-09T23:32:38.551Z,21.23
2018-05-09T23:35:04.747Z,21.60
2018-05-09T23:37:30.909Z,22.00
2018-05-09T23:39:57.053Z,20.33
2018-05-09T23:42:23.201Z,21.13
2018-05-09T23:44:49.371Z,20.83
2018-05-09T23:47:15.522Z,21.80
2018-05-09T23:49:41.738Z,22.70
2018-05-09T23:52:09.330Z,22.30
2018-05-09T23:54:35.478Z,22.90
2018-05-09T23:57:01.644Z,23.57
2018-05-09T23:59:27.803Z,23.90
